createdAt,value
2022-11-16T00:00:02.784Z,10.46
2022-11-16T00:00:30.767Z,10.46
2022-11-16T00:01:01.771Z,10.46
2022-11-16T00:01:34.727Z,10.46
2022-11-16T00:02:05.985Z,10.46
2022-11-16T00:02:35.229Z,10.46
2022-11-16T00:02:53.803Z,10.46
2022-11-16T00:03:25.868Z,10.46
2022-11-16T00:03:58.396Z,10.46
2022-11-16T00:04:29.970Z,10.46
2022-11-16T00:05:02.729Z,10.46
2022-11-16T00:05:34.804Z,10.46
2022-11-16T00:06:06.631Z,10.46
2022-11-16T00:06:33.913Z,10.46
2022-11-16T00:06:54.016Z,10.46
2022-11-16T00:07:26.012Z,10.46
2022-11-16T00:07:57.836Z,10.46
2022-11-16T00:08:30.230Z,10.46
2022-11-16T00:09:02.008Z,10.46
2022-11-16T00:09:33.845Z,10.46
2022-11-16T00:10:05.948Z,10.46
2022-11-16T00:10:34.960Z,10.46
2022-11-16T00:10:54.110Z,10.46
2022-11-16T00:11:26.464Z,10.46
2022-11-16T00:11:57.778Z,10.46
2022-11-16T00:12:30.649Z,10.61
2022-11-16T00:13:01.874Z,10.46
2022-11-16T00:13:34.849Z,10.46
2022-11-16T00:14:05.788Z,10.61
2022-11-16T00:14:33.884Z,10.46
2022-11-16T00:14:54.087Z,10.46
2022-11-16T00:15:26.158Z,10.46
2022-11-16T00:15:59.047Z,10.46
2022-11-16T00:16:29.866Z,10.46
2022-11-16T00:17:02.446Z,10.46
2022-11-16T00:17:33.949Z,10.61
2022-11-16T00:18:06.585Z,10.61
2022-11-16T00:18:34.341Z,10.61
2022-11-16T00:18:53.951Z,10.46
2022-11-16T00:19:26.008Z,10.61
2022-11-16T00:19:57.746Z,10.61
2022-11-16T00:20:29.950Z,10.61
2022-11-16T00:21:01.938Z,10.61
2022-11-16T00:21:33.957Z,10.61
2022-11-16T00:22:22.570Z,10.61
2022-11-16T00:22:39.641Z,10.61
2022-11-16T00:23:09.918Z,10.61
2022-11-16T00:23:33.871Z,10.61
2022-11-16T00:23:58.028Z,10.61
2022-11-16T00:24:30.473Z,10.61
2022-11-16T00:25:01.904Z,10.61
2022-11-16T00:25:34.799Z,10.61
2022-11-16T00:26:05.903Z,10.61
2022-11-16T00:26:34.260Z,10.61
2022-11-16T00:26:53.876Z,10.61
2022-11-16T00:27:25.927Z,10.61
2022-11-16T00:27:58.366Z,10.61
2022-11-16T00:28:29.973Z,10.61
2022-11-16T00:29:02.669Z,10.61
2022-11-16T00:29:33.840Z,10.61
2022-11-16T00:30:06.676Z,10.61
2022-11-16T00:30:34.425Z,10.61
2022-11-16T00:30:54.067Z,10.61
2022-11-16T00:31:25.821Z,10.61
2022-11-16T00:31:57.897Z,10.61
2022-11-16T00:32:29.940Z,10.61
2022-11-16T00:33:01.823Z,10.61
2022-11-16T00:33:33.781Z,10.61
2022-11-16T00:34:06.059Z,10.61
2022-11-16T00:34:34.994Z,10.61
2022-11-16T00:34:54.020Z,10.61
2022-11-16T00:35:26.702Z,10.61
2022-11-16T00:35:57.811Z,10.61
2022-11-16T00:36:30.678Z,10.61
2022-11-16T00:37:01.903Z,10.61
2022-11-16T00:37:34.624Z,10.61
2022-11-16T00:38:05.765Z,10.61
2022-11-16T00:38:34.211Z,10.61
2022-11-16T00:38:53.990Z,10.61
2022-11-16T00:39:25.997Z,10.61
2022-11-16T00:39:59.435Z,10.61
2022-11-16T00:40:29.926Z,10.61
2022-11-16T00:41:02.580Z,10.61
2022-11-16T00:41:33.990Z,10.61
2022-11-16T00:42:06.564Z,10.61
2022-11-16T00:42:34.488Z,10.61
2022-11-16T00:42:53.812Z,10.61
2022-11-16T00:43:25.954Z,10.61
2022-11-16T00:43:59.998Z,10.61
2022-11-16T00:44:29.806Z,10.61
2022-11-16T00:45:01.961Z,10.61
2022-11-16T00:45:33.916Z,10.61
2022-11-16T00:46:05.930Z,10.61
2022-11-16T00:46:34.043Z,10.61
2022-11-16T00:46:53.869Z,10.61
2022-11-16T00:47:26.721Z,10.61
2022-11-16T00:48:00.679Z,10.61
2022-11-16T00:48:30.566Z,10.61
2022-11-16T00:49:01.807Z,10.61
2022-11-16T00:49:34.695Z,10.61
2022-11-16T00:50:05.900Z,10.61
2022-11-16T00:50:34.060Z,10.61
2022-11-16T00:50:53.984Z,10.61
2022-11-16T00:51:25.971Z,10.61
2022-11-16T00:51:58.487Z,10.61
2022-11-16T00:52:29.798Z,10.51
2022-11-16T00:53:02.671Z,10.51
2022-11-16T00:53:33.959Z,10.51
2022-11-16T00:54:06.361Z,10.51
2022-11-16T00:54:34.028Z,10.51
2022-11-16T00:54:53.781Z,10.51
2022-11-16T00:55:26.106Z,10.51
2022-11-16T00:55:57.904Z,10.51
2022-11-16T00:56:29.762Z,10.51
2022-11-16T00:57:01.772Z,10.51
2022-11-16T00:57:33.936Z,10.51
2022-11-16T00:58:05.926Z,10.51
2022-11-16T00:58:34.403Z,10.51
2022-11-16T00:59:09.767Z,10.51
2022-11-16T00:59:34.682Z,10.51
2022-11-16T00:59:57.897Z,10.51
2022-11-16T01:00:30.676Z,10.51
2022-11-16T01:01:01.868Z,10.51
2022-11-16T01:01:34.832Z,10.51
2022-11-16T01:02:05.925Z,10.51
2022-11-16T01:02:33.956Z,10.51
2022-11-16T01:02:53.792Z,10.51
2022-11-16T01:03:25.803Z,10.51
2022-11-16T01:03:59.189Z,10.51
2022-11-16T01:04:29.946Z,10.51
2022-11-16T01:05:02.659Z,10.51
2022-11-16T01:05:33.910Z,10.51
2022-11-16T01:06:06.614Z,10.51
2022-11-16T01:06:33.896Z,10.51
2022-11-16T01:06:53.977Z,10.51
2022-11-16T01:07:25.914Z,10.51
2022-11-16T01:07:57.815Z,10.51
2022-11-16T01:08:30.299Z,10.61
2022-11-16T01:09:01.901Z,10.61
2022-11-16T01:09:33.740Z,10.61
2022-11-16T01:10:05.845Z,10.66
2022-11-16T01:10:34.481Z,10.66
2022-11-16T01:10:54.019Z,10.66
2022-11-16T01:11:26.360Z,10.66
2022-11-16T01:11:57.764Z,10.66
2022-11-16T01:12:30.696Z,10.61
2022-11-16T01:13:01.852Z,10.61
2022-11-16T01:13:35.075Z,10.61
2022-11-16T01:14:05.700Z,10.61
2022-11-16T01:14:34.282Z,10.61
2022-11-16T01:14:53.704Z,10.61
2022-11-16T01:15:26.080Z,10.61
2022-11-16T01:15:58.456Z,10.61
2022-11-16T01:16:29.728Z,10.61
2022-11-16T01:17:02.571Z,10.61
2022-11-16T01:17:33.796Z,10.61
2022-11-16T01:18:06.733Z,10.61
2022-11-16T01:18:36.178Z,10.61
2022-11-16T01:18:53.735Z,10.61
2022-11-16T01:19:25.781Z,10.61
2022-11-16T01:19:57.882Z,10.61
2022-11-16T01:20:30.072Z,10.61
2022-11-16T01:21:01.734Z,10.66
2022-11-16T01:21:34.006Z,10.66
2022-11-16T01:22:05.895Z,10.66
2022-11-16T01:22:33.869Z,10.66
2022-11-16T01:22:53.760Z,10.66
2022-11-16T01:23:26.471Z,10.66
2022-11-16T01:23:57.737Z,10.77
2022-11-16T01:24:30.423Z,10.77
2022-11-16T01:25:01.982Z,10.77
2022-11-16T01:25:34.583Z,10.77
2022-11-16T01:26:05.912Z,10.77
2022-11-16T01:26:33.849Z,10.77
2022-11-16T01:26:53.882Z,10.89
2022-11-16T01:27:25.953Z,10.89
2022-11-16T01:27:58.504Z,10.77
2022-11-16T01:28:29.922Z,10.77
2022-11-16T01:29:02.505Z,10.77
2022-11-16T01:29:33.955Z,10.89
2022-11-16T01:30:06.602Z,10.89
2022-11-16T01:30:34.037Z,10.89
2022-11-16T01:30:53.950Z,10.89
2022-11-16T01:31:25.867Z,10.89
2022-11-16T01:31:58.165Z,10.89
2022-11-16T01:32:29.731Z,10.89
2022-11-16T01:33:01.759Z,10.89
2022-11-16T01:33:33.906Z,10.89
2022-11-16T01:34:05.895Z,10.89
2022-11-16T01:34:34.247Z,10.89
2022-11-16T01:34:53.744Z,10.89
2022-11-16T01:35:26.598Z,10.89
2022-11-16T01:35:57.897Z,10.89
2022-11-16T01:36:30.512Z,10.89
2022-11-16T01:37:01.748Z,10.89
2022-11-16T01:37:35.232Z,10.89
2022-11-16T01:38:05.879Z,10.89
2022-11-16T01:38:34.478Z,10.89
2022-11-16T01:38:53.721Z,10.89
2022-11-16T01:39:25.823Z,10.89
2022-11-16T01:39:58.305Z,10.89
2022-11-16T01:40:29.842Z,10.89
2022-11-16T01:41:02.560Z,10.89
2022-11-16T01:41:33.793Z,10.89
2022-11-16T01:42:06.655Z,10.89
2022-11-16T01:42:33.970Z,10.89
2022-11-16T01:42:54.123Z,10.89
2022-11-16T01:43:26.157Z,10.89
2022-11-16T01:43:57.807Z,10.89
2022-11-16T01:44:29.888Z,10.89
2022-11-16T01:45:01.880Z,10.89
2022-11-16T01:45:33.927Z,10.89
2022-11-16T01:46:06.773Z,10.89
2022-11-16T01:46:33.830Z,10.89
2022-11-16T01:46:53.851Z,10.89
2022-11-16T01:47:26.467Z,10.89
2022-11-16T01:47:57.804Z,10.89
2022-11-16T01:48:30.611Z,10.89
2022-11-16T01:49:01.717Z,10.89
2022-11-16T01:49:34.624Z,10.89
2022-11-16T01:50:05.895Z,10.89
2022-11-16T01:50:33.822Z,10.89
2022-11-16T01:50:53.954Z,10.89
2022-11-16T01:51:25.760Z,10.89
2022-11-16T01:51:58.528Z,10.89
2022-11-16T01:52:29.810Z,10.89
2022-11-16T01:53:02.488Z,10.89
2022-11-16T01:53:33.736Z,10.89
2022-11-16T01:54:06.561Z,10.89
2022-11-16T01:54:33.844Z,10.89
2022-11-16T01:54:53.871Z,10.89
2022-11-16T01:55:26.147Z,10.74
2022-11-16T01:55:57.783Z,10.74
2022-11-16T01:56:29.930Z,10.74
2022-11-16T01:57:01.844Z,10.74
2022-11-16T01:57:34.234Z,10.74
2022-11-16T01:58:05.865Z,10.74
2022-11-16T01:58:34.454Z,10.74
2022-11-16T01:58:53.734Z,10.74
2022-11-16T01:59:26.563Z,10.74
2022-11-16T01:59:57.883Z,10.74
2022-11-16T02:00:30.642Z,10.74
2022-11-16T02:01:01.820Z,10.74
2022-11-16T02:01:34.969Z,10.74
2022-11-16T02:02:05.917Z,10.74
2022-11-16T02:02:34.201Z,10.74
2022-11-16T02:02:53.714Z,10.74
2022-11-16T02:03:25.760Z,10.74
2022-11-16T02:03:58.645Z,10.74
2022-11-16T02:04:29.855Z,10.74
2022-11-16T02:05:02.625Z,10.74
2022-11-16T02:05:33.811Z,10.57
2022-11-16T02:06:06.602Z,10.57
2022-11-16T02:06:33.844Z,10.57
2022-11-16T02:06:54.184Z,10.57
2022-11-16T02:07:26.486Z,10.57
2022-11-16T02:07:57.735Z,10.57
2022-11-16T02:08:29.985Z,10.45
2022-11-16T02:09:01.883Z,10.45
2022-11-16T02:09:33.703Z,10.45
2022-11-16T02:10:06.704Z,10.45
2022-11-16T02:10:33.822Z,10.45
2022-11-16T02:10:53.959Z,10.45
2022-11-16T02:11:25.885Z,10.45
2022-11-16T02:11:57.703Z,10.45
2022-11-16T02:12:29.679Z,10.45
2022-11-16T02:13:01.838Z,10.45
2022-11-16T02:13:33.898Z,10.45
2022-11-16T02:14:05.733Z,10.45
2022-11-16T02:14:34.144Z,10.45
2022-11-16T02:14:53.655Z,10.45
2022-11-16T02:15:26.794Z,10.45
2022-11-16T02:15:57.850Z,10.45
2022-11-16T02:16:30.363Z,10.45
2022-11-16T02:17:01.676Z,10.45
2022-11-16T02:17:34.741Z,10.45
2022-11-16T02:18:05.876Z,10.45
2022-11-16T02:18:34.237Z,10.45
2022-11-16T02:18:53.721Z,10.45
2022-11-16T02:19:25.701Z,10.45
2022-11-16T02:19:58.536Z,10.45
2022-11-16T02:20:30.029Z,10.45
2022-11-16T02:21:02.574Z,10.34
2022-11-16T02:21:33.760Z,10.34
2022-11-16T02:22:06.604Z,10.34
2022-11-16T02:22:33.809Z,10.34
2022-11-16T02:22:53.843Z,10.34
2022-11-16T02:23:25.864Z,10.34
2022-11-16T02:23:57.763Z,10.34
2022-11-16T02:24:29.740Z,10.34
2022-11-16T02:25:02.043Z,10.34
2022-11-16T02:25:33.952Z,10.34
2022-11-16T02:26:05.678Z,10.34
2022-11-16T02:26:33.831Z,10.34
2022-11-16T02:26:54.173Z,10.34
2022-11-16T02:27:26.359Z,10.34
2022-11-16T02:27:57.733Z,10.34
2022-11-16T02:28:30.373Z,10.34
2022-11-16T02:29:01.746Z,10.34
2022-11-16T02:29:34.584Z,10.34
2022-11-16T02:30:06.022Z,10.29
2022-11-16T02:30:33.986Z,10.29
2022-11-16T02:30:53.979Z,10.29
2022-11-16T02:31:25.832Z,10.29
2022-11-16T02:31:58.625Z,10.29
2022-11-16T02:32:29.894Z,10.29
2022-11-16T02:33:02.351Z,10.29
2022-11-16T02:33:33.973Z,10.29
2022-11-16T02:34:06.599Z,10.29
2022-11-16T02:34:34.043Z,10.29
2022-11-16T02:34:53.842Z,10.29
2022-11-16T02:35:26.028Z,10.29
2022-11-16T02:35:57.913Z,10.29
2022-11-16T02:36:29.714Z,10.29
2022-11-16T02:37:01.733Z,10.29
2022-11-16T02:37:33.938Z,10.29
2022-11-16T02:38:05.812Z,10.29
2022-11-16T02:38:34.214Z,10.29
2022-11-16T02:38:53.686Z,10.29
2022-11-16T02:39:26.625Z,10.29
2022-11-16T02:39:57.815Z,10.18
2022-11-16T02:40:30.545Z,10.18
2022-11-16T02:41:01.721Z,10.18
2022-11-16T02:41:35.509Z,10.18
2022-11-16T02:42:05.792Z,10.18
2022-11-16T02:42:34.545Z,10.18
2022-11-16T02:42:53.898Z,10.18
2022-11-16T02:43:25.716Z,10.18
2022-11-16T02:43:58.479Z,10.18
2022-11-16T02:44:29.889Z,10.18
2022-11-16T02:45:02.558Z,10.18
2022-11-16T02:45:33.649Z,10.18
2022-11-16T02:46:06.550Z,10.18
2022-11-16T02:46:33.832Z,10.07
2022-11-16T02:46:53.813Z,10.07
2022-11-16T02:47:25.882Z,10.07
2022-11-16T02:47:57.691Z,10.07
2022-11-16T02:48:29.752Z,10.07
2022-11-16T02:49:01.983Z,10.07
2022-11-16T02:49:33.905Z,10.07
2022-11-16T02:50:05.809Z,10.07
2022-11-16T02:50:34.019Z,10.07
2022-11-16T02:50:53.854Z,10.07
2022-11-16T02:51:26.411Z,10.07
2022-11-16T02:51:57.708Z,10.07
2022-11-16T02:52:30.637Z,10.07
2022-11-16T02:53:01.783Z,10.07
2022-11-16T02:53:34.469Z,10.07
2022-11-16T02:54:05.745Z,10.07
2022-11-16T02:54:33.992Z,10.07
2022-11-16T02:54:53.767Z,10.07
2022-11-16T02:55:25.920Z,10.07
2022-11-16T02:55:58.382Z,10.07
2022-11-16T02:56:29.788Z,10.07
2022-11-16T02:57:02.466Z,10.07
2022-11-16T02:57:33.793Z,10.07
2022-11-16T02:58:06.432Z,10.07
2022-11-16T02:58:34.318Z,10.07
2022-11-16T02:58:53.725Z,10.07
2022-11-16T02:59:25.798Z,10.07
2022-11-16T02:59:57.919Z,10.07
2022-11-16T03:00:30.002Z,10.07
2022-11-16T03:01:01.822Z,10.07
2022-11-16T03:01:33.747Z,10.07
2022-11-16T03:02:05.794Z,10.07
2022-11-16T03:02:33.911Z,10.07
2022-11-16T03:02:53.901Z,10.07
2022-11-16T03:03:26.467Z,10.07
2022-11-16T03:03:57.716Z,10.07
2022-11-16T03:04:30.758Z,10.07
2022-11-16T03:05:01.987Z,10.07
2022-11-16T03:05:34.611Z,10.24
2022-11-16T03:06:05.754Z,10.24
2022-11-16T03:06:33.891Z,10.24
2022-11-16T03:06:53.930Z,10.24
2022-11-16T03:07:25.996Z,10.24
2022-11-16T03:07:58.489Z,10.24
2022-11-16T03:08:29.957Z,10.24
2022-11-16T03:09:01.917Z,10.24
2022-11-16T03:09:33.899Z,10.24
2022-11-16T03:10:06.604Z,10.24
2022-11-16T03:10:34.074Z,10.24
2022-11-16T03:10:53.917Z,10.24
2022-11-16T03:11:26.032Z,10.24
2022-11-16T03:11:57.888Z,10.24
2022-11-16T03:12:29.725Z,10.24
2022-11-16T03:13:01.715Z,10.12
2022-11-16T03:13:33.886Z,10.12
2022-11-16T03:14:05.930Z,10.12
2022-11-16T03:14:34.325Z,10.12
2022-11-16T03:14:53.654Z,10.12
2022-11-16T03:15:26.737Z,10.12
2022-11-16T03:15:57.900Z,10.12
2022-11-16T03:16:30.412Z,10.12
2022-11-16T03:17:01.720Z,10.12
2022-11-16T03:17:35.610Z,10.12
2022-11-16T03:18:05.895Z,10.12
2022-11-16T03:18:34.522Z,10.12
2022-11-16T03:18:53.774Z,10.12
2022-11-16T03:19:25.762Z,10.12
2022-11-16T03:19:58.306Z,10.12
2022-11-16T03:20:30.120Z,10.12
2022-11-16T03:21:03.478Z,10.12
2022-11-16T03:21:33.746Z,10.12
2022-11-16T03:22:06.669Z,10.12
2022-11-16T03:22:34.420Z,10.12
2022-11-16T03:22:53.876Z,10.12
2022-11-16T03:23:25.827Z,10.01
2022-11-16T03:23:57.861Z,10.01
2022-11-16T03:24:29.886Z,10.01
2022-11-16T03:25:02.083Z,10.01
2022-11-16T03:25:33.678Z,10.01
2022-11-16T03:26:05.951Z,10.01
2022-11-16T03:26:33.916Z,10.01
2022-11-16T03:26:53.860Z,10.01
2022-11-16T03:27:26.313Z,10.01
2022-11-16T03:27:57.781Z,10.01
2022-11-16T03:28:30.713Z,10.01
2022-11-16T03:29:01.902Z,10.01
2022-11-16T03:29:35.136Z,10.01
2022-11-16T03:30:05.933Z,10.01
2022-11-16T03:30:34.247Z,10.01
2022-11-16T03:30:53.906Z,10.01
2022-11-16T03:31:25.907Z,10.01
2022-11-16T03:31:58.435Z,10.01
2022-11-16T03:32:29.665Z,10.01
2022-11-16T03:33:02.584Z,10.01
2022-11-16T03:33:33.872Z,10.01
2022-11-16T03:34:06.459Z,10.01
2022-11-16T03:34:34.079Z,10.01
2022-11-16T03:34:53.692Z,10.01
2022-11-16T03:35:26.029Z,10.01
2022-11-16T03:35:57.929Z,9.84
2022-11-16T03:36:29.720Z,9.84
2022-11-16T03:37:01.682Z,9.84
2022-11-16T03:37:33.802Z,9.84
2022-11-16T03:38:05.785Z,9.84
2022-11-16T03:38:34.265Z,9.79
2022-11-16T03:38:53.686Z,9.79
2022-11-16T03:39:26.583Z,9.79
2022-11-16T03:39:57.935Z,9.79
2022-11-16T03:40:30.481Z,9.79
2022-11-16T03:41:01.666Z,9.79
2022-11-16T03:41:35.680Z,9.79
2022-11-16T03:42:07.960Z,9.79
2022-11-16T03:42:33.823Z,9.79
2022-11-16T03:42:53.969Z,9.79
2022-11-16T03:43:25.670Z,9.79
2022-11-16T03:43:58.607Z,9.79
2022-11-16T03:44:29.827Z,9.79
2022-11-16T03:45:18.597Z,9.79
2022-11-16T03:45:49.778Z,9.79
2022-11-16T03:46:22.453Z,9.79
2022-11-16T03:46:39.713Z,9.79
2022-11-16T03:47:09.948Z,9.79
2022-11-16T03:47:33.848Z,9.79
2022-11-16T03:47:57.697Z,9.79
2022-11-16T03:48:30.733Z,9.79
2022-11-16T03:49:01.715Z,9.79
2022-11-16T03:49:34.983Z,9.79
2022-11-16T03:50:05.793Z,9.79
2022-11-16T03:50:34.018Z,9.79
2022-11-16T03:50:53.789Z,9.68
2022-11-16T03:51:25.877Z,9.68
2022-11-16T03:51:58.502Z,9.68
2022-11-16T03:52:29.687Z,9.68
2022-11-16T03:53:02.555Z,9.68
2022-11-16T03:53:34.524Z,9.68
2022-11-16T03:54:06.404Z,9.68
2022-11-16T03:54:34.016Z,9.68
2022-11-16T03:54:53.684Z,9.68
2022-11-16T03:55:26.231Z,9.68
2022-11-16T03:55:57.900Z,9.68
2022-11-16T03:56:29.689Z,9.68
2022-11-16T03:57:01.692Z,9.68
2022-11-16T03:57:33.792Z,9.68
2022-11-16T03:58:05.803Z,9.68
2022-11-16T03:58:34.337Z,9.68
2022-11-16T03:58:53.706Z,9.68
2022-11-16T03:59:26.485Z,9.68
2022-11-16T03:59:57.780Z,9.68
2022-11-16T04:00:30.592Z,9.68
2022-11-16T04:01:01.864Z,9.57
2022-11-16T04:01:34.533Z,9.57
2022-11-16T04:02:05.691Z,9.57
2022-11-16T04:02:33.859Z,9.57
2022-11-16T04:02:53.879Z,9.57
2022-11-16T04:03:25.687Z,9.57
2022-11-16T04:03:58.527Z,9.57
2022-11-16T04:04:29.727Z,9.57
2022-11-16T04:05:03.019Z,9.57
2022-11-16T04:05:33.814Z,9.57
2022-11-16T04:06:06.517Z,9.57
2022-11-16T04:06:34.316Z,9.57
2022-11-16T04:06:53.864Z,9.57
2022-11-16T04:07:25.778Z,9.57
2022-11-16T04:07:57.654Z,9.57
2022-11-16T04:08:29.930Z,9.57
2022-11-16T04:09:01.908Z,9.57
2022-11-16T04:09:34.044Z,9.57
2022-11-16T04:10:05.803Z,9.57
2022-11-16T04:10:34.073Z,9.57
2022-11-16T04:10:53.917Z,9.57
2022-11-16T04:11:26.425Z,9.57
2022-11-16T04:11:57.742Z,9.57
2022-11-16T04:12:30.557Z,9.57
2022-11-16T04:13:01.840Z,9.57
2022-11-16T04:13:34.450Z,9.57
2022-11-16T04:14:09.049Z,9.57
2022-11-16T04:14:33.830Z,9.57
2022-11-16T04:14:53.786Z,9.57
2022-11-16T04:15:26.106Z,9.57
2022-11-16T04:15:58.487Z,9.57
2022-11-16T04:16:29.661Z,9.57
2022-11-16T04:17:02.669Z,9.57
2022-11-16T04:17:33.860Z,9.57
2022-11-16T04:18:06.371Z,9.57
2022-11-16T04:18:34.486Z,9.57
2022-11-16T04:18:53.703Z,9.57
2022-11-16T04:19:25.889Z,9.57
2022-11-16T04:19:58.334Z,9.57
2022-11-16T04:20:29.792Z,9.57
2022-11-16T04:21:01.731Z,9.57
2022-11-16T04:21:35.119Z,9.57
2022-11-16T04:22:05.879Z,9.57
2022-11-16T04:22:34.105Z,9.57
2022-11-16T04:22:53.667Z,9.57
2022-11-16T04:23:26.567Z,9.57
2022-11-16T04:23:57.837Z,9.57
2022-11-16T04:24:30.311Z,9.57
2022-11-16T04:25:01.758Z,9.57
2022-11-16T04:25:34.798Z,9.68
2022-11-16T04:26:05.856Z,9.68
2022-11-16T04:26:34.453Z,9.68
2022-11-16T04:26:53.725Z,9.68
2022-11-16T04:27:25.689Z,9.68
2022-11-16T04:27:58.539Z,9.68
2022-11-16T04:28:29.836Z,9.68
2022-11-16T04:29:02.437Z,9.68
2022-11-16T04:29:33.671Z,9.68
2022-11-16T04:30:06.684Z,9.68
2022-11-16T04:30:33.855Z,9.68
2022-11-16T04:30:54.118Z,9.68
2022-11-16T04:31:25.672Z,9.68
2022-11-16T04:31:57.698Z,9.68
2022-11-16T04:32:29.818Z,9.68
2022-11-16T04:33:01.883Z,9.68
2022-11-16T04:33:34.209Z,9.53
2022-11-16T04:34:05.719Z,9.64
2022-11-16T04:34:33.949Z,9.64
2022-11-16T04:34:54.122Z,9.64
2022-11-16T04:35:26.481Z,9.64
2022-11-16T04:35:57.650Z,9.64
2022-11-16T04:36:30.357Z,9.64
2022-11-16T04:37:01.920Z,9.64
2022-11-16T04:37:34.462Z,9.64
2022-11-16T04:38:05.686Z,9.64
2022-11-16T04:38:34.861Z,9.64
2022-11-16T04:38:53.857Z,9.64
2022-11-16T04:39:25.899Z,9.64
2022-11-16T04:39:58.424Z,9.64
2022-11-16T04:40:29.817Z,9.64
2022-11-16T04:41:18.431Z,9.64
2022-11-16T04:41:49.671Z,9.64
2022-11-16T04:42:22.453Z,9.64
2022-11-16T04:42:39.531Z,9.64
2022-11-16T04:43:09.899Z,9.64
2022-11-16T04:43:34.395Z,9.64
2022-11-16T04:43:57.677Z,9.68
2022-11-16T04:44:30.876Z,9.68
2022-11-16T04:45:01.914Z,9.68
2022-11-16T04:45:36.055Z,9.68
2022-11-16T04:46:05.768Z,9.68
2022-11-16T04:46:34.169Z,9.64
2022-11-16T04:46:53.680Z,9.64
2022-11-16T04:47:25.742Z,9.64
2022-11-16T04:47:58.293Z,9.64
2022-11-16T04:48:29.697Z,9.64
2022-11-16T04:49:02.548Z,9.64
2022-11-16T04:49:34.180Z,9.64
2022-11-16T04:50:06.529Z,9.64
2022-11-16T04:50:34.876Z,9.64
2022-11-16T04:50:53.805Z,9.53
2022-11-16T04:51:25.748Z,9.64
2022-11-16T04:51:57.889Z,9.64
2022-11-16T04:52:29.834Z,9.64
2022-11-16T04:53:01.665Z,9.64
2022-11-16T04:53:33.675Z,9.64
2022-11-16T04:54:05.749Z,9.64
2022-11-16T04:54:33.880Z,9.53
2022-11-16T04:54:53.845Z,9.53
2022-11-16T04:55:26.618Z,9.53
2022-11-16T04:56:00.614Z,9.53
2022-11-16T04:56:30.646Z,9.37
2022-11-16T04:57:01.875Z,9.37
2022-11-16T04:57:34.577Z,9.37
2022-11-16T04:58:05.633Z,9.37
2022-11-16T04:58:34.250Z,9.37
2022-11-16T04:58:53.902Z,9.26
2022-11-16T04:59:25.844Z,9.26
2022-11-16T04:59:58.448Z,9.26
2022-11-16T05:00:29.859Z,9.26
2022-11-16T05:01:03.240Z,9.26
2022-11-16T05:01:34.080Z,9.26
2022-11-16T05:02:06.452Z,9.26
2022-11-16T05:02:34.046Z,9.26
2022-11-16T05:02:58.191Z,9.26
2022-11-16T05:03:25.865Z,9.26
2022-11-16T05:03:57.909Z,9.26
2022-11-16T05:04:29.625Z,9.26
2022-11-16T05:05:01.895Z,9.26
2022-11-16T05:05:33.792Z,9.26
2022-11-16T05:06:05.842Z,8.97
2022-11-16T05:06:33.987Z,8.97
2022-11-16T05:06:53.800Z,8.97
2022-11-16T05:07:26.697Z,8.97
2022-11-16T05:07:57.854Z,8.97
2022-11-16T05:08:30.649Z,8.97
2022-11-16T05:09:02.571Z,8.97
2022-11-16T05:09:33.814Z,8.97
2022-11-16T05:10:06.610Z,8.97
2022-11-16T05:10:33.966Z,8.97
2022-11-16T05:10:53.839Z,8.97
2022-11-16T05:11:25.704Z,8.97
2022-11-16T05:11:57.804Z,8.97
2022-11-16T05:12:29.853Z,8.87
2022-11-16T05:13:01.735Z,8.87
2022-11-16T05:13:34.984Z,8.87
2022-11-16T05:14:05.825Z,8.87
2022-11-16T05:14:33.883Z,8.87
2022-11-16T05:14:53.682Z,8.87
2022-11-16T05:15:26.632Z,8.87
2022-11-16T05:15:58.444Z,8.87
2022-11-16T05:16:30.737Z,8.87
2022-11-16T05:17:01.850Z,8.87
2022-11-16T05:17:34.481Z,8.87
2022-11-16T05:18:05.659Z,8.70
2022-11-16T05:18:34.236Z,8.70
2022-11-16T05:18:53.845Z,8.65
2022-11-16T05:19:25.686Z,8.65
2022-11-16T05:19:58.587Z,8.65
2022-11-16T05:20:29.940Z,8.65
2022-11-16T05:21:02.626Z,8.54
2022-11-16T05:21:33.711Z,8.54
2022-11-16T05:22:06.467Z,8.54
2022-11-16T05:22:34.764Z,8.54
2022-11-16T05:22:53.667Z,8.54
2022-11-16T05:23:25.901Z,8.54
2022-11-16T05:23:58.006Z,8.54
2022-11-16T05:24:29.684Z,8.54
2022-11-16T05:25:01.863Z,8.54
2022-11-16T05:25:36.596Z,8.54
2022-11-16T05:26:05.810Z,8.43
2022-11-16T05:26:34.000Z,8.43
2022-11-16T05:26:53.721Z,8.43
2022-11-16T05:27:26.571Z,8.43
2022-11-16T05:27:57.819Z,8.60
2022-11-16T05:28:31.666Z,8.60
2022-11-16T05:29:02.025Z,8.48
2022-11-16T05:29:34.794Z,8.48
2022-11-16T05:30:05.990Z,8.48
2022-11-16T05:30:33.921Z,8.48
2022-11-16T05:30:53.984Z,8.48
2022-11-16T05:31:25.698Z,8.48
2022-11-16T05:31:58.503Z,8.48
2022-11-16T05:32:29.848Z,8.37
2022-11-16T05:33:02.391Z,8.37
2022-11-16T05:33:33.699Z,8.37
2022-11-16T05:34:06.600Z,8.37
2022-11-16T05:34:34.355Z,8.37
2022-11-16T05:34:53.915Z,8.32
2022-11-16T05:35:25.971Z,8.32
2022-11-16T05:35:57.746Z,8.32
2022-11-16T05:36:29.691Z,8.32
2022-11-16T05:37:01.947Z,8.32
2022-11-16T05:37:33.885Z,8.32
2022-11-16T05:38:05.706Z,8.32
2022-11-16T05:38:34.699Z,8.32
2022-11-16T05:38:56.206Z,8.32
2022-11-16T05:39:26.376Z,8.32
2022-11-16T05:39:57.797Z,8.21
2022-11-16T05:40:30.617Z,8.21
2022-11-16T05:41:01.725Z,8.21
2022-11-16T05:41:34.574Z,8.21
2022-11-16T05:42:05.800Z,8.21
2022-11-16T05:42:34.066Z,8.21
2022-11-16T05:42:53.718Z,8.05
2022-11-16T05:43:25.723Z,8.05
2022-11-16T05:43:58.386Z,7.94
2022-11-16T05:44:29.719Z,7.94
2022-11-16T05:45:02.744Z,7.94
2022-11-16T05:45:33.888Z,8.10
2022-11-16T05:46:06.352Z,7.94
2022-11-16T05:46:33.908Z,8.10
2022-11-16T05:46:53.753Z,7.94
2022-11-16T05:47:25.926Z,7.94
2022-11-16T05:47:57.837Z,7.94
2022-11-16T05:48:29.706Z,7.94
2022-11-16T05:49:01.826Z,7.94
2022-11-16T05:49:33.837Z,7.94
2022-11-16T05:50:05.779Z,7.94
2022-11-16T05:50:39.831Z,7.94
2022-11-16T05:50:53.807Z,7.94
2022-11-16T05:51:26.371Z,7.94
2022-11-16T05:51:57.934Z,7.94
2022-11-16T05:52:30.443Z,7.94
2022-11-16T05:53:01.853Z,7.94
2022-11-16T05:53:34.889Z,7.94
2022-11-16T05:54:05.876Z,7.94
2022-11-16T05:54:36.269Z,7.94
2022-11-16T05:54:53.853Z,7.94
2022-11-16T05:55:25.799Z,7.94
2022-11-16T05:55:58.437Z,7.82
2022-11-16T05:56:29.913Z,7.82
2022-11-16T05:57:02.450Z,7.82
2022-11-16T05:57:33.693Z,7.82
2022-11-16T05:58:06.484Z,7.82
2022-11-16T05:58:35.201Z,7.82
2022-11-16T05:58:53.672Z,7.82
2022-11-16T05:59:25.764Z,7.71
2022-11-16T05:59:57.796Z,7.71
2022-11-16T06:00:30.074Z,7.71
2022-11-16T06:01:01.819Z,7.71
2022-11-16T06:01:33.695Z,7.71
2022-11-16T06:02:05.686Z,7.71
2022-11-16T06:02:33.938Z,7.71
2022-11-16T06:02:53.933Z,7.71
2022-11-16T06:03:26.443Z,7.71
2022-11-16T06:03:57.757Z,7.66
2022-11-16T06:04:30.565Z,7.66
2022-11-16T06:05:01.959Z,7.66
2022-11-16T06:05:40.059Z,7.66
2022-11-16T06:06:06.493Z,7.83
2022-11-16T06:06:34.089Z,7.83
2022-11-16T06:06:53.782Z,7.83
2022-11-16T06:07:25.882Z,7.83
2022-11-16T06:07:58.422Z,7.83
2022-11-16T06:08:29.763Z,7.83
2022-11-16T06:09:01.766Z,7.83
2022-11-16T06:09:33.924Z,7.72
2022-11-16T06:10:07.299Z,7.72
2022-11-16T06:10:34.034Z,7.72
2022-11-16T06:10:53.822Z,7.72
2022-11-16T06:11:25.753Z,7.72
2022-11-16T06:11:57.909Z,7.72
2022-11-16T06:12:29.833Z,7.72
2022-11-16T06:13:01.682Z,7.72
2022-11-16T06:13:33.703Z,7.61
2022-11-16T06:14:05.856Z,7.61
2022-11-16T06:14:34.196Z,7.61
2022-11-16T06:14:57.455Z,7.61
2022-11-16T06:15:26.714Z,7.61
2022-11-16T06:15:57.753Z,7.61
2022-11-16T06:16:30.326Z,7.61
2022-11-16T06:17:01.853Z,7.61
2022-11-16T06:17:35.836Z,7.49
2022-11-16T06:18:05.687Z,7.49
2022-11-16T06:18:34.177Z,7.66
2022-11-16T06:18:53.855Z,7.66
2022-11-16T06:19:31.086Z,7.49
2022-11-16T06:19:58.418Z,7.49
2022-11-16T06:20:29.918Z,7.66
2022-11-16T06:21:02.386Z,7.49
2022-11-16T06:21:34.003Z,7.66
2022-11-16T06:22:06.543Z,7.66
2022-11-16T06:22:33.938Z,7.66
2022-11-16T06:22:53.897Z,7.66
2022-11-16T06:23:25.892Z,7.55
2022-11-16T06:23:57.731Z,7.55
2022-11-16T06:24:29.763Z,7.55
2022-11-16T06:25:02.140Z,7.55
2022-11-16T06:25:33.960Z,7.55
2022-11-16T06:26:05.699Z,7.55
2022-11-16T06:26:34.030Z,7.55
2022-11-16T06:26:53.744Z,7.55
2022-11-16T06:27:26.312Z,7.55
2022-11-16T06:27:57.696Z,7.55
2022-11-16T06:28:30.659Z,7.55
2022-11-16T06:29:01.771Z,7.55
2022-11-16T06:29:34.905Z,7.55
2022-11-16T06:30:05.997Z,7.55
2022-11-16T06:30:34.051Z,7.55
2022-11-16T06:30:53.770Z,7.55
2022-11-16T06:31:25.837Z,7.55
2022-11-16T06:31:59.863Z,7.55